Time;durP1;ratioP1;P1;durP2;ratioP2;P2;SDS_P1;SDS_P2;PMS_P1;PMS_P2;Temp;Humidity;BMP_temperature;BMP_pressure;BME280_temperature;BME280_humidity;BME280_pressure;Samples;Min_cycle;Max_cycle;Signal;HPM_P1;HPM_P2
2023/04/29 00:00:38;;;;;;;9.00;8.40;;;11.60;69.30;;;;;;6262072;28;20780;-87
2023/04/29 00:03:43;;;;;;;9.23;8.63;;;11.70;69.30;;;;;;6253435;28;20241;-90
2023/04/29 00:06:46;;;;;;;9.20;8.60;;;11.70;69.30;;;;;;6268244;28;20376;-89
2023/04/29 00:09:49;;;;;;;9.60;8.87;;;11.70;69.30;;;;;;6263933;28;20215;-80
2023/04/29 00:12:53;;;;;;;11.27;10.20;;;11.70;69.40;;;;;;6285703;28;20282;-81
2023/04/29 00:15:56;;;;;;;10.77;10.07;;;11.70;69.60;;;;;;6303544;28;20234;-81
2023/04/29 00:19:01;;;;;;;9.67;8.97;;;11.70;69.70;;;;;;6285589;28;20286;-80
2023/04/29 00:22:04;;;;;;;10.17;9.30;;;11.70;69.50;;;;;;6294279;28;20222;-82
2023/04/29 00:25:08;;;;;;;10.27;9.37;;;11.60;69.60;;;;;;6299110;28;20214;-78
2023/04/29 00:28:11;;;;;;;8.90;8.30;;;11.60;69.60;;;;;;6292755;28;20238;-80
2023/04/29 00:31:15;;;;;;;9.17;8.50;;;11.60;69.60;;;;;;6293420;28;20226;-83
2023/04/29 00:34:20;;;;;;;10.60;9.70;;;11.60;69.50;;;;;;6291132;28;20230;-83
2023/04/29 00:37:23;;;;;;;9.03;8.47;;;11.60;69.70;;;;;;6278984;28;20230;-81
2023/04/29 00:40:28;;;;;;;9.43;8.73;;;11.60;69.40;;;;;;6286516;28;20329;-86
2023/04/29 00:43:31;;;;;;;10.53;9.67;;;11.60;69.40;;;;;;6260946;28;20236;-85
2023/04/29 00:46:34;;;;;;;10.83;9.80;;;11.50;69.80;;;;;;6257993;28;20341;-88
2023/04/29 00:49:40;;;;;;;10.60;9.60;;;11.50;69.90;;;;;;6252950;28;20230;-87
2023/04/29 00:52:44;;;;;;;10.33;9.47;;;11.40;70.10;;;;;;6265723;28;20245;-87
2023/04/29 00:55:50;;;;;;;10.57;9.87;;;11.50;70.10;;;;;;6269926;28;20230;-83
2023/04/29 00:58:57;;;;;;;9.83;9.07;;;11.40;70.40;;;;;;6268154;28;20328;-89
2023/04/29 01:02:02;;;;;;;11.03;10.03;;;11.40;70.30;;;;;;6286411;28;20234;-84
2023/04/29 01:05:06;;;;;;;10.70;9.97;;;11.50;70.30;;;;;;6287397;28;20253;-82
2023/04/29 01:08:22;;;;;;;10.23;9.20;;;11.50;70.20;;;;;;6290326;28;20323;-80
2023/04/29 01:11:34;;;;;;;10.77;9.80;;;11.50;70.00;;;;;;6288946;28;20223;-79
2023/04/29 01:14:42;;;;;;;11.17;10.37;;;11.50;70.30;;;;;;6296035;28;20307;-79
2023/04/29 01:17:56;;;;;;;10.43;9.77;;;11.40;70.50;;;;;;6291308;28;20249;-80
2023/04/29 01:21:00;;;;;;;10.87;10.07;;;11.40;70.70;;;;;;6288872;28;20294;-81
2023/04/29 01:24:05;;;;;;;10.47;9.63;;;11.40;71.10;;;;;;6265103;28;20903;-85
2023/04/29 01:27:22;;;;;;;12.10;11.00;;;11.30;71.70;;;;;;6261202;28;20321;-85
2023/04/29 01:30:38;;;;;;;13.30;11.37;;;11.30;73.20;;;;;;6256845;28;20258;-81
2023/04/29 01:33:58;;;;;;;12.77;11.70;;;11.10;73.50;;;;;;6256515;28;20250;-87
2023/04/29 01:37:10;;;;;;;11.97;11.00;;;11.10;73.60;;;;;;6264813;28;20340;-85
2023/04/29 01:40:19;;;;;;;10.77;9.77;;;11.10;73.90;;;;;;6270236;28;20234;-84
2023/04/29 01:43:25;;;;;;;12.33;11.33;;;11.10;74.10;;;;;;6285871;28;20230;-83
2023/04/29 01:46:28;;;;;;;13.70;12.53;;;11.00;74.20;;;;;;6277934;28;20242;-83
2023/04/29 01:49:36;;;;;;;14.47;13.17;;;11.00;74.30;;;;;;6254430;28;20234;-85
2023/04/29 01:52:42;;;;;;;12.80;11.70;;;10.90;75.70;;;;;;6259735;28;20245;-88
2023/04/29 01:55:47;;;;;;;14.60;12.50;;;10.90;75.40;;;;;;6269183;28;20234;-87
2023/04/29 01:58:50;;;;;;;13.77;12.57;;;10.90;75.90;;;;;;6263209;28;20770;-85
2023/04/29 02:01:55;;;;;;;14.40;12.93;;;10.90;75.80;;;;;;6269494;28;20238;-85
2023/04/29 02:04:58;;;;;;;13.73;12.53;;;10.90;76.20;;;;;;6262363;28;20732;-83
2023/04/29 02:08:02;;;;;;;15.23;13.90;;;10.90;76.00;;;;;;6234389;28;20269;-87
2023/04/29 02:11:06;;;;;;;13.57;12.47;;;10.80;76.60;;;;;;6242097;28;20241;-88
2023/04/29 02:14:11;;;;;;;14.47;13.27;;;10.80;76.60;;;;;;6246385;28;20231;-85
2023/04/29 02:17:14;;;;;;;14.80;13.53;;;10.80;76.80;;;;;;6246541;28;20544;-87
2023/04/29 02:20:17;;;;;;;15.43;14.13;;;10.70;77.00;;;;;;6243817;28;20238;-86
2023/04/29 02:23:21;;;;;;;14.63;13.53;;;10.70;77.50;;;;;;6247314;28;20230;-88
2023/04/29 02:26:25;;;;;;;16.30;14.67;;;10.70;77.40;;;;;;6245396;28;20241;-84
2023/04/29 02:29:30;;;;;;;15.33;14.03;;;10.70;77.40;;;;;;6254495;28;20231;-84
2023/04/29 02:32:34;;;;;;;15.00;13.70;;;10.70;77.50;;;;;;6242309;28;20232;-85
2023/04/29 02:35:37;;;;;;;16.80;15.30;;;10.70;77.60;;;;;;6240099;28;20234;-87
2023/04/29 02:38:40;;;;;;;16.80;15.33;;;10.70;77.60;;;;;;6236832;28;20230;-87
2023/04/29 02:41:45;;;;;;;17.10;15.43;;;10.70;77.80;;;;;;6240864;28;20234;-86
2023/04/29 02:44:48;;;;;;;17.23;15.63;;;10.60;77.90;;;;;;6240006;28;20251;-86
2023/04/29 02:47:51;;;;;;;15.90;14.57;;;10.60;78.10;;;;;;6242213;28;20306;-84
2023/04/29 02:50:54;;;;;;;17.13;15.63;;;10.60;78.10;;;;;;6237264;28;20250;-85
2023/04/29 02:53:57;;;;;;;18.13;16.63;;;10.70;78.00;;;;;;6278324;28;20226;-80
2023/04/29 02:57:02;;;;;;;19.27;17.37;;;10.60;78.50;;;;;;6274739;28;20218;-80
2023/04/29 03:00:07;;;;;;;19.03;16.97;;;10.60;78.40;;;;;;6285147;28;20268;-81
2023/04/29 03:03:10;;;;;;;19.20;17.30;;;10.70;78.50;;;;;;6283065;28;20286;-78
2023/04/29 03:06:14;;;;;;;18.13;16.70;;;10.60;78.70;;;;;;6265228;28;20314;-88
2023/04/29 03:09:17;;;;;;;20.37;18.47;;;10.50;78.80;;;;;;6263378;28;20281;-81
2023/04/29 03:12:22;;;;;;;19.47;17.67;;;10.50;79.00;;;;;;6262524;28;20245;-85
2023/04/29 03:15:26;;;;;;;20.30;18.30;;;10.50;79.00;;;;;;6262535;28;20313;-84
2023/04/29 03:18:29;;;;;;;19.50;17.70;;;10.50;79.10;;;;;;6259359;28;20226;-87
2023/04/29 03:21:32;;;;;;;21.57;19.57;;;10.50;79.30;;;;;;6263201;28;20253;-85
2023/04/29 03:24:35;;;;;;;19.00;17.30;;;10.40;79.50;;;;;;6257357;28;20744;-85
2023/04/29 03:27:42;;;;;;;19.40;17.70;;;10.50;79.50;;;;;;6263490;28;20289;-84
2023/04/29 03:30:45;;;;;;;19.30;17.63;;;10.60;79.40;;;;;;6265800;28;20776;-84
2023/04/29 03:33:49;;;;;;;20.27;18.33;;;10.60;79.30;;;;;;6257087;28;20424;-82
2023/04/29 03:36:53;;;;;;;21.13;18.77;;;10.60;79.50;;;;;;6268486;28;20245;-80
2023/04/29 03:39:56;;;;;;;18.77;17.17;;;10.60;79.30;;;;;;6258449;28;20238;-82
2023/04/29 03:43:01;;;;;;;21.93;19.97;;;10.60;79.30;;;;;;6260454;28;20736;-81
2023/04/29 03:46:04;;;;;;;19.70;17.83;;;10.70;79.30;;;;;;6264831;28;20304;-82
2023/04/29 03:49:07;;;;;;;20.97;18.87;;;10.70;79.30;;;;;;6255446;28;20255;-82
2023/04/29 03:52:11;;;;;;;23.63;21.43;;;10.70;79.40;;;;;;6257378;28;20241;-81
2023/04/29 03:55:14;;;;;;;22.27;20.27;;;10.60;79.80;;;;;;6271734;28;20237;-81
2023/04/29 03:58:19;;;;;;;21.67;19.63;;;10.70;79.60;;;;;;6260524;28;20237;-82
2023/04/29 04:01:22;;;;;;;20.27;18.37;;;10.70;79.60;;;;;;6258380;28;20246;-81
2023/04/29 04:04:25;;;;;;;20.20;18.47;;;10.70;79.60;;;;;;6236755;28;20239;-82
2023/04/29 04:07:29;;;;;;;23.47;21.30;;;10.70;79.70;;;;;;6234935;28;20266;-83
2023/04/29 04:10:32;;;;;;;20.03;18.07;;;10.70;79.90;;;;;;6267424;28;20237;-83
2023/04/29 04:13:37;;;;;;;22.60;20.43;;;10.80;79.80;;;;;;6263977;28;20732;-81
2023/04/29 04:16:40;;;;;;;25.07;22.47;;;10.80;79.70;;;;;;6255810;28;20232;-83
2023/04/29 04:19:43;;;;;;;26.13;23.47;;;10.90;79.80;;;;;;6257781;28;20229;-80
2023/04/29 04:22:46;;;;;;;23.80;21.43;;;11.00;79.60;;;;;;6249999;28;20641;-83
2023/04/29 04:25:52;;;;;;;26.57;23.87;;;11.00;79.70;;;;;;6261999;28;20242;-82
2023/04/29 04:28:56;;;;;;;29.43;24.63;;;11.00;79.80;;;;;;6264534;28;20238;-82
2023/04/29 04:31:59;;;;;;;27.70;24.93;;;11.00;80.10;;;;;;6265482;28;20234;-82
2023/04/29 04:35:02;;;;;;;26.13;23.63;;;11.00;80.20;;;;;;6256927;28;20762;-84
2023/04/29 04:38:06;;;;;;;26.10;23.60;;;11.00;80.20;;;;;;6255310;28;20238;-83
2023/04/29 04:41:09;;;;;;;28.63;25.53;;;11.10;80.10;;;;;;6255204;28;20419;-82
2023/04/29 04:44:15;;;;;;;28.53;25.63;;;11.10;80.20;;;;;;6262333;28;20259;-84
2023/04/29 04:47:19;;;;;;;28.93;25.97;;;11.10;80.30;;;;;;6262779;28;20713;-84
2023/04/29 04:50:22;;;;;;;28.93;26.03;;;11.10;80.40;;;;;;6262295;28;20242;-82
2023/04/29 04:53:25;;;;;;;32.43;27.30;;;11.10;80.40;;;;;;6261786;28;20653;-83
2023/04/29 04:56:28;;;;;;;30.83;27.63;;;11.10;80.70;;;;;;6256357;28;20318;-83
2023/04/29 04:59:33;;;;;;;29.20;26.20;;;11.10;80.60;;;;;;6258845;28;20249;-82
2023/04/29 05:02:37;;;;;;;30.23;27.03;;;11.20;80.60;;;;;;6240725;28;20277;-82
2023/04/29 05:05:40;;;;;;;31.70;28.23;;;11.30;80.40;;;;;;6256273;28;20260;-84
2023/04/29 05:08:43;;;;;;;31.10;27.87;;;11.30;80.60;;;;;;6233652;28;20231;-82
2023/04/29 05:11:46;;;;;;;34.93;28.03;;;11.30;80.90;;;;;;6243227;28;20242;-82
2023/04/29 05:14:54;;;;;;;30.10;26.80;;;11.30;81.00;;;;;;6240281;28;20261;-82
2023/04/29 05:17:57;;;;;;;28.03;25.13;;;11.30;81.20;;;;;;6243126;28;20249;-79
2023/04/29 05:21:00;;;;;;;30.37;27.37;;;11.30;81.10;;;;;;6265506;28;20250;-81
2023/04/29 05:24:05;;;;;;;29.50;26.50;;;11.30;81.20;;;;;;6261908;28;20226;-79
2023/04/29 05:27:08;;;;;;;31.07;27.90;;;11.30;81.20;;;;;;6262820;28;20306;-79
2023/04/29 05:30:13;;;;;;;31.10;27.80;;;11.40;81.20;;;;;;6255553;28;20235;-76
2023/04/29 05:33:16;;;;;;;31.60;26.80;;;11.30;81.30;;;;;;6235256;28;20730;-77
2023/04/29 05:36:19;;;;;;;30.13;26.93;;;11.40;81.30;;;;;;6239772;28;20617;-76
2023/04/29 05:39:22;;;;;;;30.47;27.30;;;11.40;81.40;;;;;;6228703;28;20234;-78
2023/04/29 05:42:26;;;;;;;29.63;26.53;;;11.40;81.50;;;;;;6259305;28;20261;-77
2023/04/29 05:45:30;;;;;;;29.87;25.93;;;11.50;81.40;;;;;;6264069;28;20241;-76
2023/04/29 05:48:33;;;;;;;29.30;26.00;;;11.40;81.40;;;;;;6259915;28;20241;-79
2023/04/29 05:51:36;;;;;;;29.00;26.07;;;11.50;81.40;;;;;;6247317;28;20381;-79
2023/04/29 05:54:40;;;;;;;27.23;24.33;;;11.50;81.60;;;;;;6253609;28;20243;-78
2023/04/29 05:57:43;;;;;;;30.50;27.13;;;11.50;81.70;;;;;;6258665;28;20226;-79
2023/04/29 06:00:48;;;;;;;30.33;26.43;;;11.50;81.80;;;;;;6263318;28;20228;-79
2023/04/29 06:03:51;;;;;;;29.40;26.27;;;11.50;81.90;;;;;;6253757;28;20261;-79
2023/04/29 06:06:56;;;;;;;31.63;27.67;;;11.50;82.00;;;;;;6254835;28;20292;-78
2023/04/29 06:10:00;;;;;;;31.37;27.93;;;11.50;82.10;;;;;;6263209;28;20238;-80
2023/04/29 06:13:03;;;;;;;31.23;27.40;;;11.50;82.20;;;;;;6252737;28;20234;-77
2023/04/29 06:16:07;;;;;;;33.33;27.50;;;11.50;82.30;;;;;;6266833;28;20544;-79
2023/04/29 06:19:11;;;;;;;32.90;26.83;;;11.50;82.30;;;;;;6264708;28;20237;-78
2023/04/29 06:22:14;;;;;;;34.07;27.57;;;11.50;82.30;;;;;;6250706;28;20241;-81
2023/04/29 06:25:17;;;;;;;29.57;26.23;;;11.50;82.30;;;;;;6253405;28;20226;-75
2023/04/29 06:28:20;;;;;;;32.40;26.20;;;11.60;82.40;;;;;;6259360;28;20246;-78
2023/04/29 06:31:25;;;;;;;28.00;23.13;;;11.60;82.40;;;;;;6247623;28;20269;-80
2023/04/29 06:34:28;;;;;;;26.57;23.10;;;11.70;82.30;;;;;;6267670;28;20380;-79
2023/04/29 06:37:31;;;;;;;28.20;23.17;;;11.70;82.20;;;;;;6250545;28;20234;-81
2023/04/29 06:40:34;;;;;;;28.37;23.27;;;11.70;82.10;;;;;;6236792;28;20812;-81
2023/04/29 06:43:37;;;;;;;26.50;23.60;;;11.70;82.00;;;;;;6252398;28;20369;-81
2023/04/29 06:46:42;;;;;;;28.47;23.47;;;11.80;82.00;;;;;;6251039;28;20237;-81
2023/04/29 06:49:45;;;;;;;25.30;22.50;;;11.90;81.70;;;;;;6249549;28;20427;-80
2023/04/29 06:52:48;;;;;;;25.30;22.03;;;11.90;81.70;;;;;;6252900;28;20266;-78
2023/04/29 06:55:51;;;;;;;27.50;23.03;;;11.90;81.60;;;;;;6262235;28;20616;-79
2023/04/29 06:58:54;;;;;;;23.23;20.80;;;11.90;81.50;;;;;;6254135;28;20234;-80
2023/04/29 07:01:58;;;;;;;22.50;20.10;;;11.90;81.40;;;;;;6261520;28;20234;-78
2023/04/29 07:05:01;;;;;;;23.40;20.13;;;12.00;81.10;;;;;;6248670;28;20231;-78
2023/04/29 07:08:05;;;;;;;21.50;19.40;;;11.90;80.80;;;;;;6254990;28;20226;-78
2023/04/29 07:11:08;;;;;;;21.93;19.60;;;11.90;80.80;;;;;;6255638;28;20237;-77
2023/04/29 07:14:11;;;;;;;22.50;19.60;;;11.90;80.90;;;;;;6249362;28;20254;-80
2023/04/29 07:17:16;;;;;;;22.20;19.83;;;11.90;80.80;;;;;;6254852;28;20248;-80
2023/04/29 07:20:20;;;;;;;23.77;20.20;;;11.90;80.30;;;;;;6265517;28;20242;-79
2023/04/29 07:23:25;;;;;;;21.57;19.27;;;11.90;80.20;;;;;;6262836;28;20281;-79
2023/04/29 07:26:28;;;;;;;20.70;18.17;;;11.90;79.80;;;;;;6255147;28;20242;-79
2023/04/29 07:29:31;;;;;;;21.33;19.13;;;11.90;79.90;;;;;;6242524;28;20221;-79
2023/04/29 07:32:35;;;;;;;20.73;18.63;;;11.80;80.00;;;;;;6228101;28;20230;-79
2023/04/29 07:35:41;;;;;;;23.17;19.03;;;11.90;80.00;;;;;;6238905;28;20654;-79
2023/04/29 07:38:45;;;;;;;24.10;18.00;;;11.90;79.70;;;;;;6237251;28;20227;-79
2023/04/29 07:41:49;;;;;;;24.60;19.70;;;11.90;79.70;;;;;;6252094;28;20318;-80
2023/04/29 07:44:52;;;;;;;24.47;20.23;;;11.90;79.60;;;;;;6261541;28;20305;-76
2023/04/29 07:47:56;;;;;;;21.67;19.27;;;11.90;79.50;;;;;;6268098;28;20229;-81
2023/04/29 07:51:00;;;;;;;20.70;18.63;;;11.90;79.40;;;;;;6261473;28;20265;-79
2023/04/29 07:54:06;;;;;;;23.83;18.80;;;11.90;78.70;;;;;;6276418;28;20234;-75
2023/04/29 07:57:09;;;;;;;20.53;18.40;;;11.90;78.30;;;;;;6264850;28;20369;-80
2023/04/29 08:00:12;;;;;;;18.97;17.23;;;11.90;78.50;;;;;;6254611;28;20250;-78
2023/04/29 08:03:18;;;;;;;18.87;17.17;;;11.90;78.30;;;;;;6249750;28;20242;-78
2023/04/29 08:06:21;;;;;;;19.70;17.90;;;11.90;78.10;;;;;;6250771;28;20237;-80
2023/04/29 08:09:24;;;;;;;17.03;15.50;;;11.80;78.30;;;;;;6245605;28;20920;-80
2023/04/29 08:12:27;;;;;;;17.20;15.63;;;11.70;78.10;;;;;;6229891;28;20906;-78
2023/04/29 08:15:30;;;;;;;15.30;14.10;;;11.70;78.20;;;;;;6239168;28;20239;-80
2023/04/29 08:18:40;;;;;;;15.17;14.00;;;11.70;78.20;;;;;;6235318;28;20754;-79
2023/04/29 08:21:43;;;;;;;16.20;14.73;;;11.50;78.30;;;;;;6245233;28;20235;-81
2023/04/29 08:24:47;;;;;;;14.53;13.33;;;11.50;78.50;;;;;;6229728;28;20249;-79
2023/04/29 08:27:50;;;;;;;15.07;13.77;;;11.50;78.20;;;;;;6230628;28;20890;-79
2023/04/29 08:30:53;;;;;;;14.07;12.90;;;11.50;78.00;;;;;;6232672;28;20239;-79
2023/04/29 08:33:58;;;;;;;16.10;14.60;;;11.50;77.70;;;;;;6229621;28;20230;-79
2023/04/29 08:37:01;;;;;;;14.27;13.17;;;11.50;77.70;;;;;;6235427;28;20859;-78
2023/04/29 08:40:05;;;;;;;15.50;14.30;;;11.50;77.60;;;;;;6230706;28;20250;-79
2023/04/29 08:43:09;;;;;;;15.70;14.40;;;11.50;77.30;;;;;;6241774;28;20361;-80
2023/04/29 08:46:13;;;;;;;16.50;15.10;;;11.40;77.20;;;;;;6241043;28;20242;-79
2023/04/29 08:49:18;;;;;;;16.83;15.23;;;11.40;77.20;;;;;;6238338;28;20644;-81
2023/04/29 08:52:21;;;;;;;17.60;16.03;;;11.30;77.20;;;;;;6241502;28;20265;-78
2023/04/29 08:55:26;;;;;;;17.00;15.50;;;11.30;77.20;;;;;;6239190;28;20654;-81
2023/04/29 08:58:34;;;;;;;16.90;15.30;;;11.30;77.50;;;;;;6239862;28;20820;-80
2023/04/29 09:01:40;;;;;;;17.13;15.73;;;11.20;77.50;;;;;;6260108;28;20388;-80
2023/04/29 09:04:49;;;;;;;18.10;16.37;;;11.20;77.20;;;;;;6253190;28;20234;-82
2023/04/29 09:07:53;;;;;;;19.53;17.53;;;11.20;77.40;;;;;;6241016;28;20231;-79
2023/04/29 09:10:57;;;;;;;20.10;18.00;;;11.10;77.20;;;;;;6238911;28;20755;-79
2023/04/29 09:14:03;;;;;;;20.90;18.70;;;11.30;77.20;;;;;;6241419;28;20748;-80
2023/04/29 09:17:06;;;;;;;22.30;19.90;;;11.20;77.10;;;;;;6240527;28;20702;-82
2023/04/29 09:20:28;;;;;;;22.73;19.90;;;11.20;77.30;;;;;;6240113;28;20227;-84
2023/04/29 09:23:37;;;;;;;22.10;19.80;;;11.20;77.40;;;;;;6255030;28;20242;-85
2023/04/29 09:26:43;;;;;;;23.43;20.97;;;11.10;77.40;;;;;;6261856;28;20321;-84
2023/04/29 09:30:00;;;;;;;24.17;21.70;;;11.10;77.30;;;;;;6262327;28;20748;-85
2023/04/29 09:33:06;;;;;;;24.37;21.50;;;11.10;77.40;;;;;;6244780;28;20288;-77
2023/04/29 09:36:11;;;;;;;30.17;23.73;;;11.00;77.50;;;;;;6240426;28;20238;-79
2023/04/29 09:39:16;;;;;;;24.40;21.83;;;11.10;77.60;;;;;;6239253;28;20234;-77
2023/04/29 09:42:19;;;;;;;25.77;22.80;;;11.00;77.60;;;;;;6248854;28;20685;-78
2023/04/29 09:45:36;;;;;;;35.87;25.63;;;11.10;77.80;;;;;;6260765;28;20756;-79
2023/04/29 09:48:39;;;;;;;28.93;24.30;;;11.00;78.20;;;;;;6254726;28;20245;-77
2023/04/29 09:51:53;;;;;;;31.60;26.30;;;11.00;78.40;;;;;;6248600;28;20238;-77
2023/04/29 09:55:05;;;;;;;34.73;26.90;;;11.00;78.00;;;;;;6246274;28;20227;-78
2023/04/29 09:58:09;;;;;;;35.30;27.60;;;11.00;77.90;;;;;;6264953;28;20238;-78
2023/04/29 10:01:13;;;;;;;36.30;29.03;;;11.00;78.20;;;;;;6248113;28;20745;-80
2023/04/29 10:04:18;;;;;;;39.83;30.87;;;10.90;77.50;;;;;;6254764;28;20316;-79
2023/04/29 10:07:23;;;;;;;35.30;28.90;;;10.90;77.30;;;;;;6253964;28;20300;-78
2023/04/29 10:10:28;;;;;;;38.00;30.67;;;10.90;77.20;;;;;;6230974;28;20246;-77
2023/04/29 10:13:37;;;;;;;40.63;32.53;;;10.80;77.10;;;;;;6242737;28;20238;-78
2023/04/29 10:16:46;;;;;;;46.90;33.83;;;10.80;77.40;;;;;;6242043;28;20326;-82
2023/04/29 10:19:57;;;;;;;45.30;35.93;;;10.90;77.20;;;;;;6259872;28;20549;-80
2023/04/29 10:23:03;;;;;;;45.50;36.57;;;10.80;77.20;;;;;;6268339;28;20314;-81
2023/04/29 10:26:11;;;;;;;48.27;38.23;;;10.90;76.90;;;;;;6257039;28;20230;-81
2023/04/29 10:29:17;;;;;;;47.17;38.27;;;10.90;76.80;;;;;;6259137;28;20321;-80
2023/04/29 10:32:22;;;;;;;49.50;36.70;;;11.00;77.10;;;;;;6258769;28;20715;-80
2023/04/29 10:35:26;;;;;;;53.30;39.00;;;11.10;76.20;;;;;;6260181;28;20245;-80
2023/04/29 10:38:36;;;;;;;44.73;35.97;;;11.10;76.40;;;;;;6269023;28;20241;-78
2023/04/29 10:41:46;;;;;;;43.30;35.63;;;11.30;75.70;;;;;;6257744;28;20282;-82
2023/04/29 10:45:18;;;;;;;42.63;35.23;;;11.30;75.20;;;;;;6249228;28;20234;-79
2023/04/29 10:48:23;;;;;;;37.70;32.90;;;11.30;75.00;;;;;;6232834;28;20231;-82
2023/04/29 10:51:31;;;;;;;37.77;32.97;;;11.30;75.30;;;;;;6240512;28;20328;-80
2023/04/29 10:54:36;;;;;;;38.53;32.37;;;11.20;75.10;;;;;;6249523;28;20314;-80
2023/04/29 10:57:39;;;;;;;40.20;33.10;;;11.30;74.90;;;;;;6239217;28;20277;-80
2023/04/29 11:00:42;;;;;;;35.03;30.40;;;11.30;74.80;;;;;;6257814;28;20229;-81
2023/04/29 11:03:53;;;;;;;34.70;29.93;;;11.30;74.40;;;;;;6269611;28;20236;-81
2023/04/29 11:06:59;;;;;;;32.57;29.07;;;11.40;74.70;;;;;;6273642;28;20230;-78
2023/04/29 11:10:05;;;;;;;31.90;28.50;;;11.50;74.80;;;;;;6291415;28;20221;-79
2023/04/29 11:13:21;;;;;;;31.70;26.77;;;11.70;73.90;;;;;;6288424;28;20306;-78
2023/04/29 11:16:28;;;;;;;28.70;25.60;;;12.00;73.20;;;;;;6271524;28;20290;-79
2023/04/29 11:19:32;;;;;;;27.57;24.77;;;12.10;72.70;;;;;;6269098;28;20386;-78
2023/04/29 11:22:35;;;;;;;27.80;25.20;;;12.20;72.20;;;;;;6268645;28;20457;-80
2023/04/29 11:25:40;;;;;;;26.63;24.03;;;12.20;71.50;;;;;;6274197;28;20232;-79
2023/04/29 11:28:44;;;;;;;25.37;22.90;;;12.10;71.50;;;;;;6274908;28;20286;-79
2023/04/29 11:31:47;;;;;;;27.03;24.33;;;12.10;71.70;;;;;;6235804;28;20987;-79
2023/04/29 11:34:50;;;;;;;24.93;22.37;;;12.20;71.50;;;;;;6239521;28;20235;-77
2023/04/29 11:37:53;;;;;;;25.00;22.33;;;12.30;71.50;;;;;;6257322;28;20754;-82
2023/04/29 11:41:00;;;;;;;24.70;22.30;;;12.50;70.70;;;;;;6259840;28;20234;-81
2023/04/29 11:44:05;;;;;;;24.20;21.80;;;12.80;69.90;;;;;;6244123;28;20418;-81
2023/04/29 11:47:08;;;;;;;23.30;21.20;;;12.90;69.20;;;;;;6247079;28;20239;-82
2023/04/29 11:50:12;;;;;;;24.47;21.90;;;13.10;68.90;;;;;;6241550;28;20238;-83
2023/04/29 11:53:15;;;;;;;23.07;21.07;;;13.10;68.90;;;;;;6260535;28;20229;-81
2023/04/29 11:56:21;;;;;;;23.30;20.83;;;13.10;68.60;;;;;;6254467;28;20234;-82
2023/04/29 11:59:26;;;;;;;20.30;18.37;;;13.10;68.50;;;;;;6243256;28;20709;-82
2023/04/29 12:02:31;;;;;;;20.00;18.00;;;13.30;67.90;;;;;;6269070;28;20230;-80
2023/04/29 12:05:34;;;;;;;18.77;16.73;;;13.40;67.00;;;;;;6262736;28;20234;-80
2023/04/29 12:08:38;;;;;;;17.70;16.17;;;13.50;66.40;;;;;;6266804;28;20242;-79
2023/04/29 12:11:43;;;;;;;18.10;16.60;;;13.60;66.20;;;;;;6270088;28;20290;-77
2023/04/29 12:14:46;;;;;;;18.40;16.80;;;13.60;66.20;;;;;;6269190;28;20249;-78
2023/04/29 12:17:50;;;;;;;17.63;16.13;;;13.50;66.20;;;;;;6264935;28;20234;-77
2023/04/29 12:20:54;;;;;;;17.73;16.00;;;13.30;66.10;;;;;;6262061;28;20230;-78
2023/04/29 12:24:00;;;;;;;17.43;15.87;;;13.20;66.60;;;;;;6262895;28;20234;-81
2023/04/29 12:27:08;;;;;;;17.27;15.50;;;13.10;66.90;;;;;;6233089;28;20229;-78
2023/04/29 12:30:11;;;;;;;17.07;15.43;;;13.00;67.10;;;;;;6243517;28;20246;-77
2023/04/29 12:33:22;;;;;;;18.80;16.97;;;12.90;67.40;;;;;;6235011;28;20765;-80
2023/04/29 12:36:25;;;;;;;17.77;16.20;;;12.90;67.90;;;;;;6239060;28;20250;-79
2023/04/29 12:39:30;;;;;;;17.53;16.03;;;13.00;68.10;;;;;;6253437;28;20257;-81
2023/04/29 12:42:34;;;;;;;17.30;15.50;;;13.30;68.20;;;;;;6257324;28;20392;-79
2023/04/29 12:45:39;;;;;;;17.00;15.50;;;13.60;67.20;;;;;;6258592;28;20238;-80
2023/04/29 12:48:43;;;;;;;17.63;14.93;;;13.90;65.40;;;;;;6259625;28;20237;-80
2023/04/29 12:51:46;;;;;;;15.07;13.63;;;14.00;65.70;;;;;;6267400;28;20249;-80
2023/04/29 12:54:50;;;;;;;13.20;12.17;;;14.20;64.20;;;;;;6254116;28;20237;-85
2023/04/29 12:57:55;;;;;;;13.03;11.77;;;14.20;64.00;;;;;;6264627;28;20248;-83
2023/04/29 13:01:01;;;;;;;12.63;11.43;;;14.30;63.90;;;;;;6262000;28;20244;-84
2023/04/29 13:04:04;;;;;;;11.63;10.63;;;14.40;63.60;;;;;;6258299;28;20237;-83
2023/04/29 13:07:08;;;;;;;9.77;8.87;;;14.60;64.00;;;;;;6261404;28;20238;-81
2023/04/29 13:10:12;;;;;;;9.87;9.13;;;14.80;62.70;;;;;;6256152;28;20230;-81
2023/04/29 13:13:17;;;;;;;9.37;8.67;;;14.80;62.60;;;;;;6248113;28;20234;-80
2023/04/29 13:16:21;;;;;;;8.73;8.13;;;14.90;61.90;;;;;;6271413;28;20329;-80
2023/04/29 13:19:24;;;;;;;8.80;8.20;;;14.70;62.30;;;;;;6261682;28;20233;-80
2023/04/29 13:22:48;;;;;;;8.50;8.00;;;14.70;62.70;;;;;;6242627;28;20731;-80
2023/04/29 13:25:51;;;;;;;8.23;7.73;;;14.70;62.80;;;;;;6249581;28;20610;-80
2023/04/29 13:28:55;;;;;;;8.50;7.90;;;14.90;62.70;;;;;;6264629;28;20296;-80
2023/04/29 13:32:05;;;;;;;7.53;7.03;;;15.00;61.80;;;;;;6265211;28;20245;-84
2023/04/29 13:35:09;;;;;;;8.20;7.67;;;15.00;61.80;;;;;;6260442;28;20280;-83
2023/04/29 13:38:12;;;;;;;7.50;7.10;;;15.00;62.00;;;;;;6269580;28;20246;-80
2023/04/29 13:41:15;;;;;;;7.53;7.13;;;15.00;62.10;;;;;;6257412;28;20237;-81
2023/04/29 13:44:20;;;;;;;8.47;7.87;;;15.10;61.60;;;;;;6268595;28;20436;-80
2023/04/29 13:47:43;;;;;;;7.63;7.23;;;15.10;61.20;;;;;;6250405;28;21537;-81
2023/04/29 13:51:06;;;;;;;8.50;7.90;;;15.20;60.80;;;;;;6240064;28;20243;-79
2023/04/29 13:54:29;;;;;;;8.90;8.17;;;15.30;61.10;;;;;;6234291;28;20231;-82
2023/04/29 13:57:35;;;;;;;8.37;7.87;;;15.40;61.00;;;;;;6239302;28;20231;-81
2023/04/29 14:00:42;;;;;;;9.07;8.40;;;15.40;61.00;;;;;;6238344;28;20235;-81
2023/04/29 14:03:48;;;;;;;9.93;9.13;;;15.50;60.30;;;;;;6233293;28;20257;-80
2023/04/29 14:06:52;;;;;;;9.63;8.87;;;15.50;60.10;;;;;;6230131;28;20235;-82
2023/04/29 14:09:55;;;;;;;10.70;9.80;;;15.20;60.20;;;;;;6248698;28;20786;-83
2023/04/29 14:12:58;;;;;;;11.20;10.20;;;15.10;59.20;;;;;;6257290;28;20245;-82
2023/04/29 14:16:05;;;;;;;11.07;10.13;;;15.00;59.50;;;;;;6264906;28;20233;-82
2023/04/29 14:19:08;;;;;;;10.83;9.93;;;14.90;59.80;;;;;;6255074;28;20237;-83
2023/04/29 14:22:11;;;;;;;11.50;10.37;;;14.80;59.60;;;;;;6255773;28;20741;-81
2023/04/29 14:25:14;;;;;;;11.00;9.90;;;14.80;60.40;;;;;;6252497;28;20234;-82
2023/04/29 14:28:17;;;;;;;11.50;10.17;;;14.80;60.70;;;;;;6264766;28;20240;-81
2023/04/29 14:31:23;;;;;;;10.57;9.57;;;14.70;61.10;;;;;;6261704;28;20252;-83
2023/04/29 14:34:26;;;;;;;12.03;10.47;;;14.80;61.00;;;;;;6262006;28;20250;-84
2023/04/29 14:37:29;;;;;;;10.83;9.87;;;15.00;60.60;;;;;;6255382;28;20237;-83
2023/04/29 14:40:32;;;;;;;11.00;10.03;;;15.10;61.10;;;;;;6239750;28;20264;-81
2023/04/29 14:43:35;;;;;;;11.03;9.53;;;15.30;60.50;;;;;;6247258;28;20238;-82
2023/04/29 14:46:40;;;;;;;10.43;9.43;;;15.50;60.00;;;;;;6250841;28;20230;-77
2023/04/29 14:49:44;;;;;;;10.70;9.80;;;15.60;59.60;;;;;;6266802;28;20218;-79
2023/04/29 14:52:47;;;;;;;10.00;9.07;;;15.60;59.40;;;;;;6282665;28;20304;-79
2023/04/29 14:55:50;;;;;;;10.63;9.67;;;15.80;59.20;;;;;;6292430;28;20238;-78
2023/04/29 14:58:54;;;;;;;9.37;8.67;;;15.80;58.40;;;;;;6282600;28;20357;-77
2023/04/29 15:01:59;;;;;;;8.40;7.70;;;15.80;58.70;;;;;;6273575;28;20246;-81
2023/04/29 15:05:02;;;;;;;10.13;9.07;;;15.80;58.70;;;;;;6263566;28;20234;-81
2023/04/29 15:08:07;;;;;;;8.93;8.33;;;15.80;58.70;;;;;;6258295;28;20234;-79
2023/04/29 15:11:10;;;;;;;10.23;9.23;;;15.90;58.90;;;;;;6262917;28;20249;-81
2023/04/29 15:14:13;;;;;;;9.27;8.37;;;16.00;57.70;;;;;;6248765;28;20241;-82
2023/04/29 15:17:17;;;;;;;8.87;8.27;;;15.90;57.90;;;;;;6252513;28;20237;-82
2023/04/29 15:20:20;;;;;;;8.37;7.60;;;15.80;57.40;;;;;;6260609;28;20245;-82
2023/04/29 15:23:24;;;;;;;7.37;6.80;;;15.80;57.10;;;;;;6262359;28;20586;-80
2023/04/29 15:26:27;;;;;;;9.93;7.83;;;15.80;56.60;;;;;;6260951;28;20233;-81
2023/04/29 15:29:31;;;;;;;8.20;7.50;;;15.80;56.50;;;;;;6260254;28;20848;-81
2023/04/29 15:32:36;;;;;;;8.00;7.23;;;15.90;56.10;;;;;;6267542;28;20238;-81
2023/04/29 15:35:39;;;;;;;7.30;6.80;;;15.80;56.40;;;;;;6264231;28;20265;-82
2023/04/29 15:38:42;;;;;;;8.27;7.30;;;15.80;56.80;;;;;;6259476;28;20238;-82
2023/04/29 15:41:45;;;;;;;7.57;7.07;;;15.70;56.40;;;;;;6256429;28;20230;-82